Buoy 41930

sailwx.info

Track history (hours):
 
Tides and Currents Weather Stations Pressure Air Temp Water Temp Dewpoint Dewpoint Depression Visibility Wind Speed Wind Dir Waves Ship Positions

Drifting buoy 41930

Last reported at 2013-Nov-05 05:00 UTC. Time now 2014-Oct-23 03:45 UTC.
Position N 40°18' W 041°20'.
Warning: this ship's position is months out of date.

Water temperature 17.9 ° C

Date/timePositionNaut miles runAvg speedWind from/ knotsBaromVisibWave heightAir tempDewpointWater temp
2013-Nov-05 05:00N 40°18' W 041°20'0 0.0 17.9
2013-Nov-04 21:00N 40°18' W 041°20'1 0.7 17.9
2013-Nov-04 19:00N 40°19' W 041°18'5 0.3 18.0
2013-Nov-04 05:00N 40°23' W 041°15'3 2.7 17.9
2013-Nov-04 04:00N 40°25' W 041°14'0 0.0 17.9
2013-Nov-03 20:00N 40°25' W 041°14'1 0.8 18.0
2013-Nov-03 19:00N 40°26' W 041°13'0 0.0 1026.4 18.0
2013-Nov-03 18:00N 40°26' W 041°13'3 1.0 18.0
2013-Nov-03 15:00N 40°27' W 041°10'2 0.7 18.1
2013-Nov-03 12:00N 40°29' W 041°09'2 0.4 17.9
2013-Nov-03 06:00N 40°30' W 041°06'0 0.0 17.9
2013-Nov-03 05:00N 40°30' W 041°06'2 2.0 17.9
2013-Nov-03 04:00N 40°32' W 041°07'0 0.0 17.9
2013-Nov-02 23:00N 40°32' W 041°07'2 0.8 17.9
2013-Nov-02 20:00N 40°33' W 041°04'2 1.2 17.9
2013-Nov-02 18:00N 40°36' W 041°03'0 0.0 17.9
2013-Nov-02 17:00N 40°36' W 041°03'0 0.0 17.9
2013-Nov-02 16:00N 40°36' W 041°03'0 0.0 17.9
2013-Nov-02 14:00N 40°36' W 041°03'3 0.9 17.9
2013-Nov-02 11:00N 40°37' W 041°00'1 0.4 17.9
2013-Nov-02 08:00N 40°38' W 040°59'0 0.0 17.9
2013-Nov-02 07:00N 40°38' W 040°59'1 1.0 17.9
2013-Nov-02 06:00N 40°38' W 040°58'0 0.0 17.9
2013-Nov-02 05:00N 40°38' W 040°58'2 2.1 17.9
2013-Nov-02 04:00N 40°40' W 040°57'5 0.4 17.9
2013-Nov-01 17:00N 40°43' W 040°52'0 0.0 17.9
2013-Nov-01 16:00N 40°43' W 040°52'7 2.3 18.0
2013-Nov-01 13:00N 40°48' W 040°45'0 0.0 17.9
2013-Nov-01 12:00N 40°48' W 040°45'0 0.0 17.9
2013-Nov-01 11:00N 40°48' W 040°45'0 0.0 17.9
2013-Nov-01 10:00N 40°48' W 040°45'0 0.0 17.9
2013-Nov-01 07:00N 40°48' W 040°45'7 2.3 17.9
2013-Nov-01 04:00N 40°53' W 040°39'0 0.0 17.9
2013-Oct-31 22:00N 40°53' W 040°39'0 0.0 18.0
2013-Oct-31 19:00N 40°53' W 040°39'2 1.6 1015.7 18.0
2013-Oct-31 18:00N 40°54' W 040°38'6 1.2 18.0
2013-Oct-31 13:00N 40°57' W 040°31'0 0.0 18.0
2013-Oct-31 07:00N 40°57' W 040°31'1 1.4 1012.9 18.0
2013-Oct-31 06:00N 40°57' W 040°29'7 3.7 18.0
2013-Oct-31 04:00N 41°01' W 040°21'0 0.0 18.0
2013-Oct-31 03:00N 41°01' W 040°21'0 0.0 18.0
2013-Oct-31 01:00N 41°01' W 040°21'0 0.0 18.0
2013-Oct-30 22:00N 41°01' W 040°21'1 0.2 18.0
2013-Oct-30 16:00N 41°02' W 040°20'2 0.8 1013.3 18.0
2013-Oct-30 14:00N 41°03' W 040°18'0 0.0 18.0
2013-Oct-30 12:00N 41°03' W 040°18'0 0.4 18.0
2013-Oct-30 11:00N 41°03' W 040°18'1 1.1 1018.3 18.0
2013-Oct-30 10:00N 41°03' W 040°17'1 0.4 18.0
2013-Oct-30 07:00N 41°04' W 040°15'1 0.8 1021.4 18.0
2013-Oct-30 06:00N 41°04' W 040°14'1 0.7 18.0
2013-Oct-30 05:00N 41°05' W 040°14'0 0.1 1023.6 18.0
2013-Oct-30 04:00N 41°05' W 040°14'1 1.1 18.0
2013-Oct-30 03:00N 41°05' W 040°12'3 0.4 1025.3 18.0
2013-Oct-29 19:00N 41°06' W 040°09'2 0.5 18.1
2013-Oct-29 16:00N 41°07' W 040°07'1 0.6 18.1
2013-Oct-29 15:00N 41°07' W 040°07'1 0.5 1023.9 18.1
2013-Oct-29 13:00N 41°08' W 040°06'0 0.0 1024.3 18.0
2013-Oct-29 12:00N 41°08' W 040°06'1 0.6 18.0
2013-Oct-29 11:00N 41°07' W 040°05'1 0.6 1023.5 18.0
2013-Oct-29 09:00N 41°08' W 040°05'0 0.2 18.0
2013-Oct-29 07:00N 41°09' W 040°04'1 0.4 1020.7 18.0
2013-Oct-29 05:00N 41°08' W 040°03'0 0.0 1020.4 18.0
2013-Oct-29 04:00N 41°08' W 040°03'1 1.4 18.0
2013-Oct-29 03:00N 41°09' W 040°01'0 0.0 18.0
2013-Oct-29 01:00N 41°09' W 040°01'0 0.3 1019.9 18.0
2013-Oct-29 00:00N 41°09' W 040°01'0 0.0 18.1
2013-Oct-28 23:00N 41°09' W 040°01'1 1.2 18.1
2013-Oct-28 22:00N 41°10' W 040°01'0 0.0 18.1
2013-Oct-28 20:00N 41°10' W 040°01'1 0.5 1017.6 18.1
2013-Oct-28 19:00N 41°10' W 040°01'1 0.3 18.1
2013-Oct-28 17:00N 41°10' W 040°01'1 0.3 18.1
2013-Oct-28 15:00N 41°10' W 040°01'0 0.1 1020.3 18.0
2013-Oct-28 14:00N 41°10' W 040°01'0 0.2 17.9
2013-Oct-28 12:00N 41°10' W 040°01'2 2.2 1025.6 17.9
2013-Oct-28 11:00N 41°09' W 040°03'2 0.8 1026.6 17.9
2013-Oct-28 09:00N 41°09' W 040°01'0 0.5 1027.7 18.0
2013-Oct-28 08:00N 41°09' W 040°01'1 0.6 1029.4 18.0
2013-Oct-28 07:00N 41°09' W 040°01'0 0.3 18.0
2013-Oct-28 06:00N 41°09' W 040°00'1 1.1 18.0
2013-Oct-28 05:00N 41°09' W 039°59'0 0.0 18.0
2013-Oct-28 04:00N 41°09' W 039°59'1 0.6 18.0
2013-Oct-28 03:00N 41°09' W 039°59'4 1.9 1032.2 18.0
2013-Oct-28 01:00N 41°10' W 039°55'0 0.0 18.0
2013-Oct-28 00:00N 41°10' W 039°55'2 1.9 1033.0 18.0
2013-Oct-27 23:00N 41°12' W 039°54'0 0.0 1033.0 18.1
2013-Oct-27 22:00N 41°12' W 039°54'0 0.0 1032.8 18.0
2013-Oct-27 21:00N 41°12' W 039°54'1 0.4 1032.5 18.0
2013-Oct-27 19:00N 41°12' W 039°55'0 0.1 1031.1 18.0
2013-Oct-27 18:00N 41°12' W 039°55'1 0.9 1031.0 18.0
2013-Oct-27 17:00N 41°12' W 039°56'0 0.0 1030.8 18.0
2013-Oct-27 16:00N 41°12' W 039°56'0 0.0 1030.3 18.0
2013-Oct-27 15:00N 41°12' W 039°56'1 1.0 1030.0 18.0
2013-Oct-27 14:00N 41°11' W 039°56'0 0.2 1029.8 18.0
2013-Oct-27 13:00N 41°11' W 039°55'4 2.1 1029.4 18.0
2013-Oct-27 11:00N 41°11' W 039°50'0 0.1 1027.4 17.9
2013-Oct-27 08:00N 41°11' W 039°50'2 1.9 1022.6 17.9
2013-Oct-27 07:00N 41°12' W 039°49'1 0.6 1021.4 17.9
2013-Oct-27 06:00N 41°13' W 039°49'1 1.4 1019.6 17.9
2013-Oct-27 05:00N 41°14' W 039°49'0 0.1 1018.1 18.0
2013-Oct-27 04:00N 41°14' W 039°49'2 0.5 1015.5 18.0
2013-Oct-27 00:00N 41°16' W 039°51'1 1.4 1011.9 18.0
2013-Oct-26 23:00N 41°17' W 039°52'2 1.9 18.0
2013-Oct-26 22:00N 41°16' W 039°50'2 1.9 18.0
2013-Oct-26 21:00N 41°17' W 039°52'1 0.7 18.0
2013-Oct-26 20:00N 41°16' W 039°53'0 0.1 17.9
2013-Oct-26 18:00N 41°16' W 039°53'1 1.0 17.9
2013-Oct-26 17:00N 41°15' W 039°53'0 0.0 1009.9 17.9
2013-Oct-26 16:00N 41°15' W 039°53'0 0.2 17.9
2013-Oct-26 15:00N 41°15' W 039°53'1 1.2 1012.6 17.9
2013-Oct-26 14:00N 41°15' W 039°51'1 0.5 17.9
2013-Oct-26 13:00N 41°15' W 039°51'2 1.8 17.9
2013-Oct-26 12:00N 41°16' W 039°49'0 0.0 17.9
2013-Oct-26 11:00N 41°16' W 039°49'1 0.5 17.8
2013-Oct-26 08:00N 41°17' W 039°49'0 0.3 17.8
2013-Oct-26 07:00N 41°18' W 039°49'0 0.2 17.9
2013-Oct-26 06:00N 41°18' W 039°50'1 0.8 17.9
2013-Oct-26 05:00N 41°18' W 039°51'   17.9
Track history (hours):
 
Tides and Currents Weather Stations Pressure Air Temp Water Temp Dewpoint Dewpoint Depression Visibility Wind Speed Wind Dir Waves Ship Positions

Drifting buoy 41930

Last reported at 2013-Nov-05 05:00 UTC. Time now 2014-Oct-23 03:45 UTC.
Position N 40°18' W 041°20'.
Warning: this ship's position is months out of date.

Water temperature 17.9 ° C

Date/timePositionNaut miles runAvg speedWind from/ knotsBaromVisibWave heightAir tempDewpointWater temp
2013-Nov-05 05:00N 40°18' W 041°20'0 0.0 17.9
2013-Nov-04 21:00N 40°18' W 041°20'1 0.7 17.9
2013-Nov-04 19:00N 40°19' W 041°18'5 0.3 18.0
2013-Nov-04 05:00N 40°23' W 041°15'3 2.7 17.9
2013-Nov-04 04:00N 40°25' W 041°14'0 0.0 17.9
2013-Nov-03 20:00N 40°25' W 041°14'1 0.8 18.0
2013-Nov-03 19:00N 40°26' W 041°13'0 0.0 1026.4 18.0
2013-Nov-03 18:00N 40°26' W 041°13'3 1.0 18.0
2013-Nov-03 15:00N 40°27' W 041°10'2 0.7 18.1
2013-Nov-03 12:00N 40°29' W 041°09'2 0.4 17.9
2013-Nov-03 06:00N 40°30' W 041°06'0 0.0 17.9
2013-Nov-03 05:00N 40°30' W 041°06'2 2.0 17.9
2013-Nov-03 04:00N 40°32' W 041°07'0 0.0 17.9
2013-Nov-02 23:00N 40°32' W 041°07'2 0.8 17.9
2013-Nov-02 20:00N 40°33' W 041°04'2 1.2 17.9
2013-Nov-02 18:00N 40°36' W 041°03'0 0.0 17.9
2013-Nov-02 17:00N 40°36' W 041°03'0 0.0 17.9
2013-Nov-02 16:00N 40°36' W 041°03'0 0.0 17.9
2013-Nov-02 14:00N 40°36' W 041°03'3 0.9 17.9
2013-Nov-02 11:00N 40°37' W 041°00'1 0.4 17.9
2013-Nov-02 08:00N 40°38' W 040°59'0 0.0 17.9
2013-Nov-02 07:00N 40°38' W 040°59'1 1.0 17.9
2013-Nov-02 06:00N 40°38' W 040°58'0 0.0 17.9
2013-Nov-02 05:00N 40°38' W 040°58'2 2.1 17.9
2013-Nov-02 04:00N 40°40' W 040°57'5 0.4 17.9
2013-Nov-01 17:00N 40°43' W 040°52'0 0.0 17.9
2013-Nov-01 16:00N 40°43' W 040°52'7 2.3 18.0
2013-Nov-01 13:00N 40°48' W 040°45'0 0.0 17.9
2013-Nov-01 12:00N 40°48' W 040°45'0 0.0 17.9
2013-Nov-01 11:00N 40°48' W 040°45'0 0.0 17.9
2013-Nov-01 10:00N 40°48' W 040°45'0 0.0 17.9
2013-Nov-01 07:00N 40°48' W 040°45'7 2.3 17.9
2013-Nov-01 04:00N 40°53' W 040°39'0 0.0 17.9
2013-Oct-31 22:00N 40°53' W 040°39'0 0.0 18.0
2013-Oct-31 19:00N 40°53' W 040°39'2 1.6 1015.7 18.0
2013-Oct-31 18:00N 40°54' W 040°38'6 1.2 18.0
2013-Oct-31 13:00N 40°57' W 040°31'0 0.0 18.0
2013-Oct-31 07:00N 40°57' W 040°31'1 1.4 1012.9 18.0
2013-Oct-31 06:00N 40°57' W 040°29'7 3.7 18.0
2013-Oct-31 04:00N 41°01' W 040°21'0 0.0 18.0
2013-Oct-31 03:00N 41°01' W 040°21'0 0.0 18.0
2013-Oct-31 01:00N 41°01' W 040°21'0 0.0 18.0
2013-Oct-30 22:00N 41°01' W 040°21'1 0.2 18.0
2013-Oct-30 16:00N 41°02' W 040°20'2 0.8 1013.3 18.0
2013-Oct-30 14:00N 41°03' W 040°18'0 0.0 18.0
2013-Oct-30 12:00N 41°03' W 040°18'0 0.4 18.0
2013-Oct-30 11:00N 41°03' W 040°18'1 1.1 1018.3 18.0
2013-Oct-30 10:00N 41°03' W 040°17'1 0.4 18.0
2013-Oct-30 07:00N 41°04' W 040°15'1 0.8 1021.4 18.0
2013-Oct-30 06:00N 41°04' W 040°14'1 0.7 18.0
2013-Oct-30 05:00N 41°05' W 040°14'0 0.1 1023.6 18.0
2013-Oct-30 04:00N 41°05' W 040°14'1 1.1 18.0
2013-Oct-30 03:00N 41°05' W 040°12'3 0.4 1025.3 18.0
2013-Oct-29 19:00N 41°06' W 040°09'2 0.5 18.1
2013-Oct-29 16:00N 41°07' W 040°07'1 0.6 18.1
2013-Oct-29 15:00N 41°07' W 040°07'1 0.5 1023.9 18.1
2013-Oct-29 13:00N 41°08' W 040°06'0 0.0 1024.3 18.0
2013-Oct-29 12:00N 41°08' W 040°06'1 0.6 18.0
2013-Oct-29 11:00N 41°07' W 040°05'1 0.6 1023.5 18.0
2013-Oct-29 09:00N 41°08' W 040°05'0 0.2 18.0
2013-Oct-29 07:00N 41°09' W 040°04'1 0.4 1020.7 18.0
2013-Oct-29 05:00N 41°08' W 040°03'0 0.0 1020.4 18.0
2013-Oct-29 04:00N 41°08' W 040°03'1 1.4 18.0
2013-Oct-29 03:00N 41°09' W 040°01'0 0.0 18.0
2013-Oct-29 01:00N 41°09' W 040°01'0 0.3 1019.9 18.0
2013-Oct-29 00:00N 41°09' W 040°01'0 0.0 18.1
2013-Oct-28 23:00N 41°09' W 040°01'1 1.2 18.1
2013-Oct-28 22:00N 41°10' W 040°01'0 0.0 18.1
2013-Oct-28 20:00N 41°10' W 040°01'1 0.5 1017.6 18.1
2013-Oct-28 19:00N 41°10' W 040°01'1 0.3 18.1
2013-Oct-28 17:00N 41°10' W 040°01'1 0.3 18.1
2013-Oct-28 15:00N 41°10' W 040°01'0 0.1 1020.3 18.0
2013-Oct-28 14:00N 41°10' W 040°01'0 0.2 17.9
2013-Oct-28 12:00N 41°10' W 040°01'2 2.2 1025.6 17.9
2013-Oct-28 11:00N 41°09' W 040°03'2 0.8 1026.6 17.9
2013-Oct-28 09:00N 41°09' W 040°01'0 0.5 1027.7 18.0
2013-Oct-28 08:00N 41°09' W 040°01'1 0.6 1029.4 18.0
2013-Oct-28 07:00N 41°09' W 040°01'0 0.3 18.0
2013-Oct-28 06:00N 41°09' W 040°00'1 1.1 18.0
2013-Oct-28 05:00N 41°09' W 039°59'0 0.0 18.0
2013-Oct-28 04:00N 41°09' W 039°59'1 0.6 18.0
2013-Oct-28 03:00N 41°09' W 039°59'4 1.9 1032.2 18.0
2013-Oct-28 01:00N 41°10' W 039°55'0 0.0 18.0
2013-Oct-28 00:00N 41°10' W 039°55'2 1.9 1033.0 18.0
2013-Oct-27 23:00N 41°12' W 039°54'0 0.0 1033.0 18.1
2013-Oct-27 22:00N 41°12' W 039°54'0 0.0 1032.8 18.0
2013-Oct-27 21:00N 41°12' W 039°54'1 0.4 1032.5 18.0
2013-Oct-27 19:00N 41°12' W 039°55'0 0.1 1031.1 18.0
2013-Oct-27 18:00N 41°12' W 039°55'1 0.9 1031.0 18.0
2013-Oct-27 17:00N 41°12' W 039°56'0 0.0 1030.8 18.0
2013-Oct-27 16:00N 41°12' W 039°56'0 0.0 1030.3 18.0
2013-Oct-27 15:00N 41°12' W 039°56'1 1.0 1030.0 18.0
2013-Oct-27 14:00N 41°11' W 039°56'0 0.2 1029.8 18.0
2013-Oct-27 13:00N 41°11' W 039°55'4 2.1 1029.4 18.0
2013-Oct-27 11:00N 41°11' W 039°50'0 0.1 1027.4 17.9
2013-Oct-27 08:00N 41°11' W 039°50'2 1.9 1022.6 17.9
2013-Oct-27 07:00N 41°12' W 039°49'1 0.6 1021.4 17.9
2013-Oct-27 06:00N 41°13' W 039°49'1 1.4 1019.6 17.9
2013-Oct-27 05:00N 41°14' W 039°49'0 0.1 1018.1 18.0
2013-Oct-27 04:00N 41°14' W 039°49'2 0.5 1015.5 18.0
2013-Oct-27 00:00N 41°16' W 039°51'1 1.4 1011.9 18.0
2013-Oct-26 23:00N 41°17' W 039°52'2 1.9 18.0
2013-Oct-26 22:00N 41°16' W 039°50'2 1.9 18.0
2013-Oct-26 21:00N 41°17' W 039°52'1 0.7 18.0
2013-Oct-26 20:00N 41°16' W 039°53'0 0.1 17.9
2013-Oct-26 18:00N 41°16' W 039°53'1 1.0 17.9
2013-Oct-26 17:00N 41°15' W 039°53'0 0.0 1009.9 17.9
2013-Oct-26 16:00N 41°15' W 039°53'0 0.2 17.9
2013-Oct-26 15:00N 41°15' W 039°53'1 1.2 1012.6 17.9
2013-Oct-26 14:00N 41°15' W 039°51'1 0.5 17.9
2013-Oct-26 13:00N 41°15' W 039°51'2 1.8 17.9
2013-Oct-26 12:00N 41°16' W 039°49'0 0.0 17.9
2013-Oct-26 11:00N 41°16' W 039°49'1 0.5 17.8
2013-Oct-26 08:00N 41°17' W 039°49'0 0.3 17.8
2013-Oct-26 07:00N 41°18' W 039°49'0 0.2 17.9
2013-Oct-26 06:00N 41°18' W 039°50'1 0.8 17.9
2013-Oct-26 05:00N 41°18' W 039°51'   17.9

Dump ship's entire track history